sensor_id;sensor_type;location;lat;lon;timestamp;P1;durP1;ratioP1;P2;durP2;ratioP2
82244;SDS011;71849;50.096;14.458;2023-10-19T00:01:06;12.18;;;6.00;;
82244;SDS011;71849;50.096;14.458;2023-10-19T00:03:33;12.50;;;6.18;;
82244;SDS011;71849;50.096;14.458;2023-10-19T00:05:59;11.70;;;6.30;;
82244;SDS011;71849;50.096;14.458;2023-10-19T00:08:24;12.25;;;6.22;;
82244;SDS011;71849;50.096;14.458;2023-10-19T00:10:51;13.63;;;6.95;;
82244;SDS011;71849;50.096;14.458;2023-10-19T00:13:28;12.43;;;5.57;;
82244;SDS011;71849;50.096;14.458;2023-10-19T00:15:55;12.32;;;5.93;;
82244;SDS011;71849;50.096;14.458;2023-10-19T00:18:22;12.85;;;5.53;;
82244;SDS011;71849;50.096;14.458;2023-10-19T00:20:52;13.00;;;6.22;;
82244;SDS011;71849;50.096;14.458;2023-10-19T00:23:25;11.40;;;6.00;;
82244;SDS011;71849;50.096;14.458;2023-10-19T00:26:00;12.82;;;6.68;;
82244;SDS011;71849;50.096;14.458;2023-10-19T00:28:42;10.57;;;5.72;;
82244;SDS011;71849;50.096;14.458;2023-10-19T00:31:10;14.60;;;6.72;;
82244;SDS011;71849;50.096;14.458;2023-10-19T00:33:37;14.75;;;6.90;;
82244;SDS011;71849;50.096;14.458;2023-10-19T00:36:09;16.02;;;8.52;;
82244;SDS011;71849;50.096;14.458;2023-10-19T00:38:38;18.17;;;10.55;;
82244;SDS011;71849;50.096;14.458;2023-10-19T00:41:05;18.70;;;9.95;;
82244;SDS011;71849;50.096;14.458;2023-10-19T00:43:34;17.60;;;9.40;;
82244;SDS011;71849;50.096;14.458;2023-10-19T00:46:14;15.95;;;8.13;;
82244;SDS011;71849;50.096;14.458;2023-10-19T00:48:44;12.93;;;7.20;;
82244;SDS011;71849;50.096;14.458;2023-10-19T00:51:16;13.93;;;6.45;;
82244;SDS011;71849;50.096;14.458;2023-10-19T00:56:39;11.93;;;6.07;;
82244;SDS011;71849;50.096;14.458;2023-10-19T00:59:11;12.93;;;6.05;;
82244;SDS011;71849;50.096;14.458;2023-10-19T01:01:40;11.57;;;5.63;;
82244;SDS011;71849;50.096;14.458;2023-10-19T01:04:10;11.27;;;5.75;;
82244;SDS011;71849;50.096;14.458;2023-10-19T01:06:40;11.73;;;5.85;;
82244;SDS011;71849;50.096;14.458;2023-10-19T01:09:23;14.00;;;6.43;;
82244;SDS011;71849;50.096;14.458;2023-10-19T01:11:52;12.73;;;6.22;;
82244;SDS011;71849;50.096;14.458;2023-10-19T01:14:25;13.40;;;6.25;;
82244;SDS011;71849;50.096;14.458;2023-10-19T01:16:53;12.75;;;6.40;;
82244;SDS011;71849;50.096;14.458;2023-10-19T01:19:22;13.77;;;6.45;;
82244;SDS011;71849;50.096;14.458;2023-10-19T01:21:48;12.63;;;6.85;;
82244;SDS011;71849;50.096;14.458;2023-10-19T01:24:21;12.30;;;6.28;;
82244;SDS011;71849;50.096;14.458;2023-10-19T01:27:07;12.68;;;5.95;;
82244;SDS011;71849;50.096;14.458;2023-10-19T01:29:35;11.50;;;5.50;;
82244;SDS011;71849;50.096;14.458;2023-10-19T01:32:03;11.07;;;5.65;;
82244;SDS011;71849;50.096;14.458;2023-10-19T01:34:36;11.77;;;5.70;;
82244;SDS011;71849;50.096;14.458;2023-10-19T01:37:02;16.02;;;6.63;;
82244;SDS011;71849;50.096;14.458;2023-10-19T01:39:32;12.82;;;6.00;;
82244;SDS011;71849;50.096;14.458;2023-10-19T01:42:00;11.10;;;5.95;;
82244;SDS011;71849;50.096;14.458;2023-10-19T01:44:26;12.18;;;5.72;;
82244;SDS011;71849;50.096;14.458;2023-10-19T01:46:52;12.80;;;6.22;;
82244;SDS011;71849;50.096;14.458;2023-10-19T01:49:18;11.05;;;5.88;;
82244;SDS011;71849;50.096;14.458;2023-10-19T01:51:51;12.43;;;6.13;;
82244;SDS011;71849;50.096;14.458;2023-10-19T01:54:19;13.30;;;6.70;;
82244;SDS011;71849;50.096;14.458;2023-10-19T01:56:48;14.35;;;6.53;;
82244;SDS011;71849;50.096;14.458;2023-10-19T01:59:25;12.52;;;6.38;;
82244;SDS011;71849;50.096;14.458;2023-10-19T02:01:53;11.40;;;5.85;;
82244;SDS011;71849;50.096;14.458;2023-10-19T02:04:19;11.20;;;5.63;;
82244;SDS011;71849;50.096;14.458;2023-10-19T02:06:46;13.93;;;5.90;;
82244;SDS011;71849;50.096;14.458;2023-10-19T02:09:13;13.85;;;6.38;;
82244;SDS011;71849;50.096;14.458;2023-10-19T02:11:55;13.20;;;6.13;;
82244;SDS011;71849;50.096;14.458;2023-10-19T02:14:22;15.98;;;6.32;;
82244;SDS011;71849;50.096;14.458;2023-10-19T02:16:53;14.23;;;6.40;;
82244;SDS011;71849;50.096;14.458;2023-10-19T02:19:24;12.38;;;6.20;;
82244;SDS011;71849;50.096;14.458;2023-10-19T02:21:58;13.65;;;7.43;;
82244;SDS011;71849;50.096;14.458;2023-10-19T02:24:25;13.02;;;6.93;;
82244;SDS011;71849;50.096;14.458;2023-10-19T02:26:52;12.60;;;6.72;;
82244;SDS011;71849;50.096;14.458;2023-10-19T02:29:19;12.88;;;6.35;;
82244;SDS011;71849;50.096;14.458;2023-10-19T02:31:46;13.05;;;7.47;;
82244;SDS011;71849;50.096;14.458;2023-10-19T02:34:13;12.93;;;6.80;;
82244;SDS011;71849;50.096;14.458;2023-10-19T02:36:42;15.55;;;7.32;;
82244;SDS011;71849;50.096;14.458;2023-10-19T02:39:10;13.07;;;6.90;;
82244;SDS011;71849;50.096;14.458;2023-10-19T02:41:40;10.98;;;6.45;;
82244;SDS011;71849;50.096;14.458;2023-10-19T02:44:11;15.68;;;7.40;;
82244;SDS011;71849;50.096;14.458;2023-10-19T02:46:46;13.82;;;6.38;;
82244;SDS011;71849;50.096;14.458;2023-10-19T02:49:14;17.17;;;8.00;;
82244;SDS011;71849;50.096;14.458;2023-10-19T02:51:43;15.00;;;7.35;;
82244;SDS011;71849;50.096;14.458;2023-10-19T02:54:10;13.20;;;7.00;;
82244;SDS011;71849;50.096;14.458;2023-10-19T02:56:43;12.57;;;6.28;;
82244;SDS011;71849;50.096;14.458;2023-10-19T02:59:12;16.08;;;7.45;;
82244;SDS011;71849;50.096;14.458;2023-10-19T03:01:41;14.23;;;6.80;;
82244;SDS011;71849;50.096;14.458;2023-10-19T03:04:09;12.30;;;6.40;;
82244;SDS011;71849;50.096;14.458;2023-10-19T03:06:37;13.88;;;7.50;;
82244;SDS011;71849;50.096;14.458;2023-10-19T03:09:04;13.15;;;6.78;;
82244;SDS011;71849;50.096;14.458;2023-10-19T03:11:50;13.07;;;7.03;;
82244;SDS011;71849;50.096;14.458;2023-10-19T03:16:49;15.43;;;7.32;;
82244;SDS011;71849;50.096;14.458;2023-10-19T03:19:15;17.50;;;7.25;;
82244;SDS011;71849;50.096;14.458;2023-10-19T03:21:41;15.50;;;7.07;;
82244;SDS011;71849;50.096;14.458;2023-10-19T03:24:09;13.65;;;7.00;;
82244;SDS011;71849;50.096;14.458;2023-10-19T03:26:39;12.85;;;6.95;;
82244;SDS011;71849;50.096;14.458;2023-10-19T03:29:13;12.95;;;7.28;;
82244;SDS011;71849;50.096;14.458;2023-10-19T03:31:40;15.45;;;7.88;;
82244;SDS011;71849;50.096;14.458;2023-10-19T03:34:12;14.35;;;7.43;;
82244;SDS011;71849;50.096;14.458;2023-10-19T03:36:39;13.70;;;7.70;;
82244;SDS011;71849;50.096;14.458;2023-10-19T03:39:05;14.82;;;7.70;;
82244;SDS011;71849;50.096;14.458;2023-10-19T03:41:38;13.48;;;7.68;;
82244;SDS011;71849;50.096;14.458;2023-10-19T03:44:07;17.65;;;8.00;;
82244;SDS011;71849;50.096;14.458;2023-10-19T03:46:49;16.17;;;8.55;;
82244;SDS011;71849;50.096;14.458;2023-10-19T03:49:18;19.67;;;9.05;;
82244;SDS011;71849;50.096;14.458;2023-10-19T03:51:45;17.45;;;9.75;;
82244;SDS011;71849;50.096;14.458;2023-10-19T03:54:27;17.40;;;9.50;;
82244;SDS011;71849;50.096;14.458;2023-10-19T03:56:53;17.83;;;8.85;;
82244;SDS011;71849;50.096;14.458;2023-10-19T03:59:20;17.45;;;9.13;;
82244;SDS011;71849;50.096;14.458;2023-10-19T04:01:46;19.08;;;9.63;;
82244;SDS011;71849;50.096;14.458;2023-10-19T04:04:12;16.20;;;8.85;;
82244;SDS011;71849;50.096;14.458;2023-10-19T04:06:38;16.75;;;9.10;;
82244;SDS011;71849;50.096;14.458;2023-10-19T04:09:05;15.80;;;8.77;;
82244;SDS011;71849;50.096;14.458;2023-10-19T04:11:31;17.77;;;9.00;;
82244;SDS011;71849;50.096;14.458;2023-10-19T04:14:20;19.92;;;12.35;;
82244;SDS011;71849;50.096;14.458;2023-10-19T04:16:46;18.00;;;10.27;;
82244;SDS011;71849;50.096;14.458;2023-10-19T04:19:14;17.58;;;9.57;;
82244;SDS011;71849;50.096;14.458;2023-10-19T04:21:40;14.75;;;9.35;;
82244;SDS011;71849;50.096;14.458;2023-10-19T04:24:11;15.88;;;9.10;;
82244;SDS011;71849;50.096;14.458;2023-10-19T04:26:37;15.63;;;9.23;;
82244;SDS011;71849;50.096;14.458;2023-10-19T04:29:03;17.70;;;10.07;;
82244;SDS011;71849;50.096;14.458;2023-10-19T04:31:35;18.77;;;9.60;;
82244;SDS011;71849;50.096;14.458;2023-10-19T04:34:14;16.75;;;8.82;;
82244;SDS011;71849;50.096;14.458;2023-10-19T04:36:39;16.42;;;9.38;;
82244;SDS011;71849;50.096;14.458;2023-10-19T04:39:05;15.02;;;9.25;;
82244;SDS011;71849;50.096;14.458;2023-10-19T04:41:30;19.35;;;9.55;;
82244;SDS011;71849;50.096;14.458;2023-10-19T04:43:55;16.88;;;9.98;;
82244;SDS011;71849;50.096;14.458;2023-10-19T04:46:23;19.08;;;10.07;;
82244;SDS011;71849;50.096;14.458;2023-10-19T04:48:49;16.40;;;9.15;;
82244;SDS011;71849;50.096;14.458;2023-10-19T04:51:14;16.83;;;9.18;;
82244;SDS011;71849;50.096;14.458;2023-10-19T04:53:40;18.38;;;10.57;;
82244;SDS011;71849;50.096;14.458;2023-10-19T04:56:07;18.42;;;10.50;;
82244;SDS011;71849;50.096;14.458;2023-10-19T04:58:37;15.25;;;9.45;;
82244;SDS011;71849;50.096;14.458;2023-10-19T05:01:03;18.73;;;10.30;;
82244;SDS011;71849;50.096;14.458;2023-10-19T05:03:29;17.30;;;9.88;;
82244;SDS011;71849;50.096;14.458;2023-10-19T05:05:55;17.13;;;10.10;;
82244;SDS011;71849;50.096;14.458;2023-10-19T05:08:21;21.95;;;10.88;;
82244;SDS011;71849;50.096;14.458;2023-10-19T05:10:50;18.27;;;10.13;;
82244;SDS011;71849;50.096;14.458;2023-10-19T05:13:17;18.48;;;10.68;;
82244;SDS011;71849;50.096;14.458;2023-10-19T05:15:42;18.58;;;10.38;;
82244;SDS011;71849;50.096;14.458;2023-10-19T05:18:08;18.00;;;10.70;;
82244;SDS011;71849;50.096;14.458;2023-10-19T05:20:33;20.10;;;9.90;;
82244;SDS011;71849;50.096;14.458;2023-10-19T05:22:59;18.08;;;10.40;;
82244;SDS011;71849;50.096;14.458;2023-10-19T05:25:25;18.73;;;9.93;;
82244;SDS011;71849;50.096;14.458;2023-10-19T05:27:51;21.17;;;10.10;;
82244;SDS011;71849;50.096;14.458;2023-10-19T05:30:16;22.17;;;11.60;;
82244;SDS011;71849;50.096;14.458;2023-10-19T05:32:42;19.95;;;11.02;;
82244;SDS011;71849;50.096;14.458;2023-10-19T05:35:07;22.00;;;11.57;;
82244;SDS011;71849;50.096;14.458;2023-10-19T05:37:33;22.92;;;11.75;;
82244;SDS011;71849;50.096;14.458;2023-10-19T05:39:58;19.65;;;11.50;;
82244;SDS011;71849;50.096;14.458;2023-10-19T05:42:24;20.30;;;11.35;;
82244;SDS011;71849;50.096;14.458;2023-10-19T05:44:50;22.42;;;11.93;;
82244;SDS011;71849;50.096;14.458;2023-10-19T05:47:16;21.73;;;12.32;;
82244;SDS011;71849;50.096;14.458;2023-10-19T05:49:42;19.95;;;12.43;;
82244;SDS011;71849;50.096;14.458;2023-10-19T05:52:07;20.90;;;12.05;;
82244;SDS011;71849;50.096;14.458;2023-10-19T05:54:33;23.47;;;11.77;;
82244;SDS011;71849;50.096;14.458;2023-10-19T05:56:58;19.63;;;11.65;;
82244;SDS011;71849;50.096;14.458;2023-10-19T05:59:24;17.48;;;10.75;;
82244;SDS011;71849;50.096;14.458;2023-10-19T06:01:51;25.05;;;12.32;;
82244;SDS011;71849;50.096;14.458;2023-10-19T06:04:17;21.20;;;11.75;;
82244;SDS011;71849;50.096;14.458;2023-10-19T06:06:43;23.15;;;12.02;;
82244;SDS011;71849;50.096;14.458;2023-10-19T06:09:08;20.30;;;11.20;;
82244;SDS011;71849;50.096;14.458;2023-10-19T06:11:34;21.30;;;12.00;;
82244;SDS011;71849;50.096;14.458;2023-10-19T06:14:02;22.85;;;11.70;;
82244;SDS011;71849;50.096;14.458;2023-10-19T06:16:34;22.10;;;11.50;;
82244;SDS011;71849;50.096;14.458;2023-10-19T06:19:00;19.50;;;11.35;;
82244;SDS011;71849;50.096;14.458;2023-10-19T06:21:25;22.48;;;13.10;;
82244;SDS011;71849;50.096;14.458;2023-10-19T06:23:51;24.00;;;13.70;;
82244;SDS011;71849;50.096;14.458;2023-10-19T06:26:18;21.00;;;12.68;;
82244;SDS011;71849;50.096;14.458;2023-10-19T06:28:44;23.70;;;11.77;;
82244;SDS011;71849;50.096;14.458;2023-10-19T06:31:10;21.88;;;12.18;;
82244;SDS011;71849;50.096;14.458;2023-10-19T06:33:35;23.85;;;13.00;;
82244;SDS011;71849;50.096;14.458;2023-10-19T06:36:01;25.58;;;13.93;;
82244;SDS011;71849;50.096;14.458;2023-10-19T06:38:30;20.50;;;11.90;;
82244;SDS011;71849;50.096;14.458;2023-10-19T06:40:59;18.80;;;11.70;;
82244;SDS011;71849;50.096;14.458;2023-10-19T06:43:25;23.45;;;12.32;;
82244;SDS011;71849;50.096;14.458;2023-10-19T06:45:53;23.38;;;12.73;;
82244;SDS011;71849;50.096;14.458;2023-10-19T06:48:20;23.13;;;11.75;;
82244;SDS011;71849;50.096;14.458;2023-10-19T06:50:46;19.92;;;11.45;;
82244;SDS011;71849;50.096;14.458;2023-10-19T06:53:11;22.25;;;12.00;;
82244;SDS011;71849;50.096;14.458;2023-10-19T06:55:37;25.90;;;14.38;;
82244;SDS011;71849;50.096;14.458;2023-10-19T06:58:02;19.33;;;11.10;;
82244;SDS011;71849;50.096;14.458;2023-10-19T07:00:29;20.27;;;11.25;;
82244;SDS011;71849;50.096;14.458;2023-10-19T07:02:56;19.48;;;11.05;;
82244;SDS011;71849;50.096;14.458;2023-10-19T07:05:22;20.33;;;11.57;;
82244;SDS011;71849;50.096;14.458;2023-10-19T07:07:51;19.33;;;11.32;;
82244;SDS011;71849;50.096;14.458;2023-10-19T07:10:21;23.50;;;12.60;;
82244;SDS011;71849;50.096;14.458;2023-10-19T07:12:48;23.33;;;12.68;;
82244;SDS011;71849;50.096;14.458;2023-10-19T07:15:16;23.10;;;13.13;;
82244;SDS011;71849;50.096;14.458;2023-10-19T07:17:49;21.10;;;13.52;;
82244;SDS011;71849;50.096;14.458;2023-10-19T07:20:17;22.05;;;13.40;;
82244;SDS011;71849;50.096;14.458;2023-10-19T07:23:03;24.13;;;13.43;;
82244;SDS011;71849;50.096;14.458;2023-10-19T07:25:56;24.23;;;12.45;;
82244;SDS011;71849;50.096;14.458;2023-10-19T07:28:24;22.92;;;12.20;;
82244;SDS011;71849;50.096;14.458;2023-10-19T07:30:55;25.27;;;13.45;;
82244;SDS011;71849;50.096;14.458;2023-10-19T07:33:21;21.63;;;13.02;;
82244;SDS011;71849;50.096;14.458;2023-10-19T07:35:47;24.15;;;13.40;;
82244;SDS011;71849;50.096;14.458;2023-10-19T07:38:18;26.50;;;13.25;;
82244;SDS011;71849;50.096;14.458;2023-10-19T07:40:46;24.00;;;13.70;;
82244;SDS011;71849;50.096;14.458;2023-10-19T07:43:12;25.98;;;14.07;;
82244;SDS011;71849;50.096;14.458;2023-10-19T07:45:38;23.13;;;12.45;;
82244;SDS011;71849;50.096;14.458;2023-10-19T07:48:04;25.45;;;14.52;;
82244;SDS011;71849;50.096;14.458;2023-10-19T07:50:36;23.55;;;14.10;;
82244;SDS011;71849;50.096;14.458;2023-10-19T07:53:02;22.50;;;12.93;;
82244;SDS011;71849;50.096;14.458;2023-10-19T07:55:29;27.20;;;15.77;;
82244;SDS011;71849;50.096;14.458;2023-10-19T07:57:56;26.23;;;13.80;;
82244;SDS011;71849;50.096;14.458;2023-10-19T08:00:25;26.50;;;12.23;;
82244;SDS011;71849;50.096;14.458;2023-10-19T08:02:51;25.80;;;13.35;;
82244;SDS011;71849;50.096;14.458;2023-10-19T08:05:21;22.13;;;12.88;;
82244;SDS011;71849;50.096;14.458;2023-10-19T08:07:47;23.02;;;12.70;;
82244;SDS011;71849;50.096;14.458;2023-10-19T08:10:14;23.83;;;12.32;;
82244;SDS011;71849;50.096;14.458;2023-10-19T08:12:41;22.10;;;12.40;;
82244;SDS011;71849;50.096;14.458;2023-10-19T08:15:09;22.45;;;12.90;;
82244;SDS011;71849;50.096;14.458;2023-10-19T08:17:40;21.58;;;12.73;;
82244;SDS011;71849;50.096;14.458;2023-10-19T08:20:07;21.63;;;12.77;;
82244;SDS011;71849;50.096;14.458;2023-10-19T08:22:35;22.35;;;13.60;;
82244;SDS011;71849;50.096;14.458;2023-10-19T08:25:02;22.98;;;12.63;;
82244;SDS011;71849;50.096;14.458;2023-10-19T08:27:37;24.48;;;13.20;;
82244;SDS011;71849;50.096;14.458;2023-10-19T08:30:05;26.17;;;14.95;;
82244;SDS011;71849;50.096;14.458;2023-10-19T08:32:33;24.45;;;13.98;;
82244;SDS011;71849;50.096;14.458;2023-10-19T08:34:59;24.52;;;13.38;;
82244;SDS011;71849;50.096;14.458;2023-10-19T08:37:26;29.77;;;15.50;;
82244;SDS011;71849;50.096;14.458;2023-10-19T08:39:51;27.25;;;15.90;;
82244;SDS011;71849;50.096;14.458;2023-10-19T08:42:17;26.30;;;14.05;;
82244;SDS011;71849;50.096;14.458;2023-10-19T08:44:42;25.40;;;14.82;;
82244;SDS011;71849;50.096;14.458;2023-10-19T08:47:08;23.10;;;13.82;;
82244;SDS011;71849;50.096;14.458;2023-10-19T08:49:33;23.00;;;14.35;;
82244;SDS011;71849;50.096;14.458;2023-10-19T08:51:59;25.70;;;15.00;;
82244;SDS011;71849;50.096;14.458;2023-10-19T08:54:29;25.95;;;14.88;;
82244;SDS011;71849;50.096;14.458;2023-10-19T08:56:54;24.92;;;15.02;;
82244;SDS011;71849;50.096;14.458;2023-10-19T08:59:20;25.85;;;14.15;;
82244;SDS011;71849;50.096;14.458;2023-10-19T09:01:46;28.13;;;16.98;;
82244;SDS011;71849;50.096;14.458;2023-10-19T09:04:12;25.80;;;16.25;;
82244;SDS011;71849;50.096;14.458;2023-10-19T09:06:43;29.15;;;16.20;;
82244;SDS011;71849;50.096;14.458;2023-10-19T09:09:10;26.00;;;14.75;;
82244;SDS011;71849;50.096;14.458;2023-10-19T09:11:50;24.50;;;15.70;;
82244;SDS011;71849;50.096;14.458;2023-10-19T09:14:33;23.27;;;14.85;;
82244;SDS011;71849;50.096;14.458;2023-10-19T09:17:06;25.67;;;15.60;;
82244;SDS011;71849;50.096;14.458;2023-10-19T09:22:07;33.70;;;15.80;;
82244;SDS011;71849;50.096;14.458;2023-10-19T09:24:41;29.55;;;15.30;;
82244;SDS011;71849;50.096;14.458;2023-10-19T09:27:08;24.80;;;14.90;;
82244;SDS011;71849;50.096;14.458;2023-10-19T09:32:19;26.02;;;15.32;;
82244;SDS011;71849;50.096;14.458;2023-10-19T09:34:44;25.02;;;14.70;;
82244;SDS011;71849;50.096;14.458;2023-10-19T09:37:12;25.15;;;16.00;;
82244;SDS011;71849;50.096;14.458;2023-10-19T09:39:38;33.20;;;14.43;;
82244;SDS011;71849;50.096;14.458;2023-10-19T09:42:10;23.17;;;14.43;;
82244;SDS011;71849;50.096;14.458;2023-10-19T09:47:12;20.85;;;13.57;;
82244;SDS011;71849;50.096;14.458;2023-10-19T09:49:40;22.17;;;13.27;;
82244;SDS011;71849;50.096;14.458;2023-10-19T09:52:07;23.83;;;13.80;;
82244;SDS011;71849;50.096;14.458;2023-10-19T09:54:39;24.08;;;13.70;;
82244;SDS011;71849;50.096;14.458;2023-10-19T09:57:13;23.33;;;14.05;;
82244;SDS011;71849;50.096;14.458;2023-10-19T10:02:11;23.40;;;13.38;;
82244;SDS011;71849;50.096;14.458;2023-10-19T10:04:39;22.98;;;12.65;;
82244;SDS011;71849;50.096;14.458;2023-10-19T10:07:08;25.15;;;13.50;;
82244;SDS011;71849;50.096;14.458;2023-10-19T10:09:38;22.95;;;13.25;;
82244;SDS011;71849;50.096;14.458;2023-10-19T10:12:18;22.27;;;14.30;;
82244;SDS011;71849;50.096;14.458;2023-10-19T10:14:59;23.95;;;14.13;;
82244;SDS011;71849;50.096;14.458;2023-10-19T10:17:27;21.30;;;13.10;;
82244;SDS011;71849;50.096;14.458;2023-10-19T10:19:54;21.08;;;12.38;;
82244;SDS011;71849;50.096;14.458;2023-10-19T10:22:22;21.25;;;12.95;;
82244;SDS011;71849;50.096;14.458;2023-10-19T10:24:53;22.45;;;14.10;;
82244;SDS011;71849;50.096;14.458;2023-10-19T10:27:21;23.10;;;13.18;;
82244;SDS011;71849;50.096;14.458;2023-10-19T10:29:56;25.15;;;15.25;;
82244;SDS011;71849;50.096;14.458;2023-10-19T10:33:05;24.42;;;13.95;;
82244;SDS011;71849;50.096;14.458;2023-10-19T10:38:05;23.42;;;14.15;;
82244;SDS011;71849;50.096;14.458;2023-10-19T10:40:43;32.30;;;14.98;;
82244;SDS011;71849;50.096;14.458;2023-10-19T10:43:09;23.67;;;14.60;;
82244;SDS011;71849;50.096;14.458;2023-10-19T10:45:36;26.13;;;14.48;;
82244;SDS011;71849;50.096;14.458;2023-10-19T10:48:02;24.83;;;16.58;;
82244;SDS011;71849;50.096;14.458;2023-10-19T10:50:29;25.35;;;14.50;;
82244;SDS011;71849;50.096;14.458;2023-10-19T10:52:54;25.60;;;14.63;;
82244;SDS011;71849;50.096;14.458;2023-10-19T10:55:22;23.80;;;15.40;;
82244;SDS011;71849;50.096;14.458;2023-10-19T10:57:50;32.90;;;19.80;;
82244;SDS011;71849;50.096;14.458;2023-10-19T11:00:16;27.50;;;16.05;;
82244;SDS011;71849;50.096;14.458;2023-10-19T11:02:44;26.02;;;16.25;;
82244;SDS011;71849;50.096;14.458;2023-10-19T11:05:15;24.45;;;15.50;;
82244;SDS011;71849;50.096;14.458;2023-10-19T11:08:02;25.48;;;16.48;;
82244;SDS011;71849;50.096;14.458;2023-10-19T11:10:31;27.30;;;16.52;;
82244;SDS011;71849;50.096;14.458;2023-10-19T11:13:00;28.00;;;17.27;;
82244;SDS011;71849;50.096;14.458;2023-10-19T11:15:29;24.55;;;14.82;;
82244;SDS011;71849;50.096;14.458;2023-10-19T11:17:54;20.98;;;14.35;;
82244;SDS011;71849;50.096;14.458;2023-10-19T11:20:21;24.35;;;14.98;;
82244;SDS011;71849;50.096;14.458;2023-10-19T11:22:51;26.55;;;15.52;;
82244;SDS011;71849;50.096;14.458;2023-10-19T11:25:18;19.48;;;13.05;;
82244;SDS011;71849;50.096;14.458;2023-10-19T11:27:45;24.05;;;14.70;;
82244;SDS011;71849;50.096;14.458;2023-10-19T11:30:12;24.25;;;14.57;;
82244;SDS011;71849;50.096;14.458;2023-10-19T11:32:38;22.58;;;14.75;;
82244;SDS011;71849;50.096;14.458;2023-10-19T11:35:04;23.75;;;14.85;;
82244;SDS011;71849;50.096;14.458;2023-10-19T11:37:29;25.02;;;15.07;;
82244;SDS011;71849;50.096;14.458;2023-10-19T11:39:55;23.80;;;15.40;;
82244;SDS011;71849;50.096;14.458;2023-10-19T11:42:20;24.95;;;15.90;;
82244;SDS011;71849;50.096;14.458;2023-10-19T11:44:46;23.60;;;16.52;;
82244;SDS011;71849;50.096;14.458;2023-10-19T11:47:12;25.90;;;16.45;;
82244;SDS011;71849;50.096;14.458;2023-10-19T11:49:38;25.08;;;15.50;;
82244;SDS011;71849;50.096;14.458;2023-10-19T11:52:07;24.42;;;16.35;;
82244;SDS011;71849;50.096;14.458;2023-10-19T11:54:33;25.60;;;16.38;;
82244;SDS011;71849;50.096;14.458;2023-10-19T11:57:00;25.58;;;15.88;;
82244;SDS011;71849;50.096;14.458;2023-10-19T11:59:25;27.88;;;15.90;;
82244;SDS011;71849;50.096;14.458;2023-10-19T12:01:51;27.83;;;16.23;;
82244;SDS011;71849;50.096;14.458;2023-10-19T12:04:17;28.92;;;16.27;;
82244;SDS011;71849;50.096;14.458;2023-10-19T12:06:43;29.63;;;16.45;;
82244;SDS011;71849;50.096;14.458;2023-10-19T12:09:08;26.48;;;16.55;;
82244;SDS011;71849;50.096;14.458;2023-10-19T12:11:40;27.45;;;16.05;;
82244;SDS011;71849;50.096;14.458;2023-10-19T12:14:06;24.95;;;14.88;;
82244;SDS011;71849;50.096;14.458;2023-10-19T12:16:36;24.08;;;14.85;;
82244;SDS011;71849;50.096;14.458;2023-10-19T12:19:02;25.40;;;15.48;;
82244;SDS011;71849;50.096;14.458;2023-10-19T12:21:28;28.55;;;16.83;;
82244;SDS011;71849;50.096;14.458;2023-10-19T12:23:55;28.73;;;17.02;;
82244;SDS011;71849;50.096;14.458;2023-10-19T12:26:21;28.33;;;17.50;;
82244;SDS011;71849;50.096;14.458;2023-10-19T12:28:47;24.65;;;15.40;;
82244;SDS011;71849;50.096;14.458;2023-10-19T12:31:14;24.40;;;14.68;;
82244;SDS011;71849;50.096;14.458;2023-10-19T12:33:40;24.05;;;14.93;;
82244;SDS011;71849;50.096;14.458;2023-10-19T12:36:07;24.35;;;14.38;;
82244;SDS011;71849;50.096;14.458;2023-10-19T12:38:51;31.65;;;17.40;;
82244;SDS011;71849;50.096;14.458;2023-10-19T12:41:18;28.70;;;15.63;;
82244;SDS011;71849;50.096;14.458;2023-10-19T12:43:44;33.40;;;17.70;;
82244;SDS011;71849;50.096;14.458;2023-10-19T12:46:11;25.45;;;14.70;;
82244;SDS011;71849;50.096;14.458;2023-10-19T12:48:38;28.00;;;17.60;;
82244;SDS011;71849;50.096;14.458;2023-10-19T12:51:04;26.00;;;15.15;;
82244;SDS011;71849;50.096;14.458;2023-10-19T12:53:34;25.00;;;14.88;;
82244;SDS011;71849;50.096;14.458;2023-10-19T12:56:00;23.27;;;14.25;;
82244;SDS011;71849;50.096;14.458;2023-10-19T12:58:25;23.63;;;13.57;;
82244;SDS011;71849;50.096;14.458;2023-10-19T13:00:52;22.77;;;14.65;;
82244;SDS011;71849;50.096;14.458;2023-10-19T13:03:21;22.98;;;14.05;;
82244;SDS011;71849;50.096;14.458;2023-10-19T13:05:49;24.90;;;14.68;;
82244;SDS011;71849;50.096;14.458;2023-10-19T13:08:15;20.45;;;13.63;;
82244;SDS011;71849;50.096;14.458;2023-10-19T13:10:44;28.08;;;16.83;;
82244;SDS011;71849;50.096;14.458;2023-10-19T13:13:12;24.05;;;14.38;;
82244;SDS011;71849;50.096;14.458;2023-10-19T13:15:40;21.90;;;13.52;;
82244;SDS011;71849;50.096;14.458;2023-10-19T13:18:11;29.10;;;14.10;;
82244;SDS011;71849;50.096;14.458;2023-10-19T13:20:41;23.98;;;15.10;;
82244;SDS011;71849;50.096;14.458;2023-10-19T13:23:09;23.75;;;14.73;;
82244;SDS011;71849;50.096;14.458;2023-10-19T13:25:41;28.50;;;14.32;;
82244;SDS011;71849;50.096;14.458;2023-10-19T13:28:11;22.25;;;14.70;;
82244;SDS011;71849;50.096;14.458;2023-10-19T13:30:38;23.98;;;15.02;;
82244;SDS011;71849;50.096;14.458;2023-10-19T13:33:07;25.02;;;15.38;;
82244;SDS011;71849;50.096;14.458;2023-10-19T13:35:37;25.23;;;15.95;;
82244;SDS011;71849;50.096;14.458;2023-10-19T13:38:06;22.90;;;14.60;;
82244;SDS011;71849;50.096;14.458;2023-10-19T13:40:36;35.70;;;16.58;;
82244;SDS011;71849;50.096;14.458;2023-10-19T13:43:03;31.20;;;16.42;;
82244;SDS011;71849;50.096;14.458;2023-10-19T13:45:31;24.85;;;15.10;;
82244;SDS011;71849;50.096;14.458;2023-10-19T13:48:04;22.40;;;15.10;;
82244;SDS011;71849;50.096;14.458;2023-10-19T13:50:31;25.75;;;15.73;;
82244;SDS011;71849;50.096;14.458;2023-10-19T13:52:57;28.85;;;17.80;;
82244;SDS011;71849;50.096;14.458;2023-10-19T13:55:30;28.33;;;16.38;;
82244;SDS011;71849;50.096;14.458;2023-10-19T13:57:56;26.77;;;15.70;;
82244;SDS011;71849;50.096;14.458;2023-10-19T14:00:23;23.55;;;14.90;;
82244;SDS011;71849;50.096;14.458;2023-10-19T14:02:58;27.40;;;15.23;;
82244;SDS011;71849;50.096;14.458;2023-10-19T14:05:25;23.90;;;15.70;;
82244;SDS011;71849;50.096;14.458;2023-10-19T14:07:51;24.42;;;15.50;;
82244;SDS011;71849;50.096;14.458;2023-10-19T14:10:17;27.48;;;17.25;;
82244;SDS011;71849;50.096;14.458;2023-10-19T14:12:44;29.80;;;16.30;;
82244;SDS011;71849;50.096;14.458;2023-10-19T14:15:15;27.67;;;17.25;;
82244;SDS011;71849;50.096;14.458;2023-10-19T14:17:42;29.35;;;16.95;;
82244;SDS011;71849;50.096;14.458;2023-10-19T14:20:10;29.42;;;18.05;;
82244;SDS011;71849;50.096;14.458;2023-10-19T14:22:38;24.80;;;16.30;;
82244;SDS011;71849;50.096;14.458;2023-10-19T14:25:08;27.67;;;16.58;;
82244;SDS011;71849;50.096;14.458;2023-10-19T14:27:39;26.75;;;16.63;;
82244;SDS011;71849;50.096;14.458;2023-10-19T14:30:05;27.20;;;16.40;;
82244;SDS011;71849;50.096;14.458;2023-10-19T14:32:32;26.90;;;15.57;;
82244;SDS011;71849;50.096;14.458;2023-10-19T14:34:58;26.55;;;16.52;;
82244;SDS011;71849;50.096;14.458;2023-10-19T14:37:23;28.10;;;17.40;;
82244;SDS011;71849;50.096;14.458;2023-10-19T14:39:49;27.58;;;17.70;;